Porto Seguro Airport
SBPS : rendu visible

Aérodrome :











RETROUVEZ-NOUS SUR...

 
LOGIN :

S'inscrire | Disclaimer

   EN    FR    IT 

 









Légende :    VFR   VFR Marginal   IFR   IFR Intensif   IFR Très Intensif
Visi : 
Plafond : 
>= 8 km
>= 3000ft
5 à 8 km
1000 à 3000 ft
1500m à 5 km
500 à 1000 ft
800 à 1500m
200 à 500 ft
< 800m
< 200 ft
Symboles :   Orages  Brouillard  Fortes neiges  Fortes précipitations  Vent > 20 kt






- Altitude de l'aérodrome : 168 ft
- Code IATA : BPS


SBPS - Porto Seguro

DERNIER METAR :
  • 270300Z 31004KT 9999 FEW020 SCT070 25/22 Q1012

METARs EXPIRÉS :
  • 270200Z 33004KT 9999 FEW020 25/23 Q1012
  • 270100Z 33006KT 9999 FEW020 25/23 Q1013

TAF TAF SBPS
Valide du 27 à 00h jusqu'au 28 à 00h UTC


262100Z 2700/2724 27005KT 8000 SHRA FEW009 BKN013 TN23/2709Z TX29/2718Z
BECMG 2703/2705 33005KT CAVOK
BECMG 2710/2712 33008KT 9999 SCT020
BECMG 2716/2718 04005KT
BECMG 2721/2722 FEW017 RMK PAY
FIR SBRE / Amérique du Sud



MET'MAP, la Météo Aéronautique d'un coup d'oeil ! - Copyright ORBIFLY Décembre 2007 - Disclaimer

ORBIFLY MET'MAP TEAM :

Programmation & Développement : Alexandra Zaïnal
Sur une idée originale de : Baudouin d'Aumeries
Assistance à la programmation : Marc-Olivier Méhu
Soutien technique & logistique : Manuel Goepfert

Contact : metmap@orbifly.com




SOURCES & CREDITS :

   NOAA       Earth
Advisory